createdAt,value
2022-10-05T00:03:16.453Z,4.20
2022-10-05T00:08:23.847Z,4.20
2022-10-05T00:13:28.689Z,4.40
2022-10-05T00:18:28.316Z,5.10
2022-10-05T00:23:33.463Z,4.10
2022-10-05T00:28:35.066Z,4.00
2022-10-05T00:33:33.904Z,3.20
2022-10-05T00:38:33.479Z,3.30
2022-10-05T00:43:56.695Z,3.30
2022-10-05T00:49:09.700Z,3.40
2022-10-05T00:54:35.831Z,2.40
2022-10-05T00:59:52.733Z,3.00
2022-10-05T01:05:00.931Z,3.30
2022-10-05T01:10:12.941Z,3.80
2022-10-05T01:15:19.399Z,3.40
2022-10-05T01:20:39.720Z,3.30
2022-10-05T01:25:59.180Z,3.20
2022-10-05T01:31:08.159Z,2.90
2022-10-05T01:36:20.830Z,3.50
2022-10-05T01:41:34.093Z,4.30
2022-10-05T01:46:43.073Z,2.90
2022-10-05T01:51:54.606Z,2.60
2022-10-05T01:57:18.474Z,3.30
2022-10-05T02:02:24.424Z,3.60
2022-10-05T02:07:31.031Z,3.10
2022-10-05T02:12:38.847Z,2.70
2022-10-05T02:17:47.335Z,3.80
2022-10-05T02:22:50.819Z,3.10
2022-10-05T02:28:01.608Z,3.90
2022-10-05T02:33:08.383Z,3.10
2022-10-05T02:38:22.032Z,3.70
2022-10-05T02:43:41.745Z,4.10
2022-10-05T02:48:56.011Z,3.50
2022-10-05T02:54:14.453Z,4.10
2022-10-05T02:59:23.528Z,4.80
2022-10-05T03:04:36.064Z,3.50
2022-10-05T03:09:44.267Z,4.40
2022-10-05T03:15:00.087Z,3.80
2022-10-05T03:20:21.326Z,3.90
2022-10-05T03:25:57.378Z,3.70
2022-10-05T03:31:07.050Z,4.00
2022-10-05T03:36:18.335Z,4.60
2022-10-05T03:41:30.762Z,5.00
2022-10-05T03:46:50.833Z,4.50
2022-10-05T03:52:03.571Z,4.40
2022-10-05T03:57:12.193Z,4.20
2022-10-05T04:02:21.534Z,4.10
2022-10-05T04:07:37.687Z,3.30
2022-10-05T04:12:43.381Z,3.10
2022-10-05T04:17:47.397Z,3.30
2022-10-05T04:23:00.970Z,3.80
2022-10-05T04:28:13.578Z,3.20
2022-10-05T04:33:16.380Z,3.90
2022-10-05T04:38:36.276Z,3.60
2022-10-05T04:43:55.941Z,3.40
2022-10-05T04:49:25.621Z,3.50
2022-10-05T04:54:44.731Z,3.90
2022-10-05T05:00:14.110Z,3.50
2022-10-05T05:05:48.397Z,3.80
2022-10-05T05:11:24.401Z,3.90
2022-10-05T05:16:37.905Z,3.40
2022-10-05T05:21:49.271Z,3.30
2022-10-05T05:27:12.353Z,2.80
2022-10-05T05:32:28.583Z,2.80
2022-10-05T05:37:41.821Z,3.10
2022-10-05T05:42:55.751Z,2.70
2022-10-05T05:48:00.806Z,3.50
2022-10-05T05:53:11.113Z,4.00
2022-10-05T05:58:35.422Z,3.10
2022-10-05T06:03:45.777Z,3.90
2022-10-05T06:08:50.820Z,4.10
2022-10-05T06:14:07.817Z,4.20
2022-10-05T06:19:15.437Z,3.30
2022-10-05T06:24:24.606Z,4.00
2022-10-05T06:29:34.430Z,3.30
2022-10-05T06:35:05.564Z,4.00
2022-10-05T06:40:29.414Z,3.80
2022-10-05T06:45:49.915Z,3.60
2022-10-05T06:51:25.302Z,3.40
2022-10-05T06:56:51.327Z,3.60
2022-10-05T07:02:08.115Z,3.50
2022-10-05T07:07:22.121Z,3.60
2022-10-05T07:12:51.647Z,3.80
2022-10-05T07:18:08.898Z,3.40
2022-10-05T07:23:34.823Z,3.10
2022-10-05T07:28:46.006Z,3.60
2022-10-05T07:33:56.382Z,2.60
2022-10-05T07:39:04.332Z,3.30
2022-10-05T07:44:17.616Z,3.10
2022-10-05T07:49:36.007Z,3.00
2022-10-05T07:54:56.542Z,3.20
2022-10-05T08:00:06.688Z,3.00
2022-10-05T08:05:24.650Z,2.90
2022-10-05T08:10:41.074Z,2.90
2022-10-05T08:15:50.737Z,3.00
2022-10-05T08:20:56.692Z,2.70
2022-10-05T08:26:13.472Z,2.30
2022-10-05T08:31:25.195Z,3.10
2022-10-05T08:36:53.648Z,2.80
2022-10-05T08:42:29.299Z,2.90
2022-10-05T08:47:59.510Z,2.80
2022-10-05T08:53:35.375Z,2.20
2022-10-05T08:59:04.743Z,2.50
2022-10-05T09:04:33.591Z,2.30
2022-10-05T09:10:13.265Z,2.40
2022-10-05T09:15:46.468Z,2.50
2022-10-05T09:20:55.313Z,1.90
2022-10-05T09:26:09.477Z,2.10
2022-10-05T09:31:40.293Z,2.30
2022-10-05T09:37:25.513Z,2.40
2022-10-05T09:42:53.856Z,2.70
2022-10-05T09:48:54.897Z,2.30
2022-10-05T09:54:53.730Z,2.30
2022-10-05T10:00:22.125Z,2.00
2022-10-05T10:06:00.745Z,1.90
2022-10-05T10:11:12.933Z,2.20
2022-10-05T10:16:31.623Z,1.60
2022-10-05T10:22:17.506Z,2.00
2022-10-05T10:27:48.079Z,1.60
2022-10-05T10:33:37.206Z,2.10
2022-10-05T10:38:48.873Z,1.50
2022-10-05T10:44:49.468Z,1.80
2022-10-05T10:50:20.380Z,1.80
2022-10-05T10:55:40.516Z,1.80
2022-10-05T11:00:54.828Z,1.90
2022-10-05T11:06:33.047Z,2.00
2022-10-05T11:12:33.640Z,2.10
2022-10-05T11:18:08.947Z,1.60
2022-10-05T11:23:47.495Z,1.50
2022-10-05T11:29:22.742Z,1.90
2022-10-05T11:35:14.162Z,1.40
2022-10-05T11:41:05.502Z,1.70
2022-10-05T11:46:20.169Z,1.40
2022-10-05T11:51:50.363Z,1.60
2022-10-05T11:57:02.187Z,1.40
2022-10-05T12:02:36.907Z,1.50
2022-10-05T12:07:52.689Z,1.80
2022-10-05T12:13:20.006Z,1.40
2022-10-05T12:18:46.389Z,1.80
2022-10-05T12:24:00.251Z,1.90
2022-10-05T12:29:09.838Z,1.70
2022-10-05T12:34:24.207Z,1.70
2022-10-05T12:39:38.659Z,2.00
2022-10-05T12:45:03.997Z,1.80
2022-10-05T12:50:37.099Z,2.70
2022-10-05T12:55:50.222Z,2.30
2022-10-05T13:01:01.667Z,2.80
2022-10-05T13:06:19.047Z,3.40
2022-10-05T13:11:25.165Z,2.60
2022-10-05T13:16:40.994Z,2.70
2022-10-05T13:22:03.420Z,2.50
2022-10-05T13:27:13.019Z,3.30
2022-10-05T13:32:22.396Z,2.60
2022-10-05T13:37:32.612Z,2.40
2022-10-05T13:42:44.637Z,2.70
2022-10-05T13:48:00.114Z,3.00
2022-10-05T13:53:12.870Z,3.30
2022-10-05T13:58:29.920Z,2.40
2022-10-05T14:03:35.199Z,2.50
2022-10-05T14:08:49.425Z,1.80
2022-10-05T14:13:53.368Z,2.80
2022-10-05T14:19:22.154Z,2.50
2022-10-05T14:24:44.058Z,2.30
2022-10-05T14:29:45.385Z,2.30
2022-10-05T14:34:58.261Z,2.40
2022-10-05T14:40:23.156Z,2.50
2022-10-05T14:45:26.367Z,3.10
2022-10-05T14:50:29.858Z,3.00
2022-10-05T14:56:06.867Z,2.40
2022-10-05T15:01:16.847Z,3.30
2022-10-05T15:06:29.757Z,3.10
2022-10-05T15:11:47.359Z,3.10
2022-10-05T15:16:47.356Z,2.90
2022-10-05T15:22:07.272Z,2.60
2022-10-05T15:27:14.127Z,3.30
2022-10-05T15:32:32.639Z,2.50
2022-10-05T15:37:43.502Z,2.40
2022-10-05T15:42:45.470Z,2.30
2022-10-05T15:48:01.181Z,2.60
2022-10-05T15:53:13.302Z,2.70
2022-10-05T15:58:56.206Z,2.30
2022-10-05T16:04:04.982Z,2.30
2022-10-05T16:09:23.420Z,2.80
2022-10-05T16:14:39.241Z,2.40
2022-10-05T16:19:49.307Z,2.30
2022-10-05T16:25:16.191Z,2.20
2022-10-05T16:30:21.055Z,2.20
2022-10-05T16:35:36.167Z,2.20
2022-10-05T16:40:50.742Z,2.50
2022-10-05T16:46:03.388Z,3.40
2022-10-05T16:51:32.739Z,3.00
2022-10-05T16:56:43.211Z,3.30
2022-10-05T17:01:57.481Z,2.50
2022-10-05T17:07:33.183Z,3.00
2022-10-05T17:13:04.122Z,3.20
2022-10-05T17:18:51.630Z,2.80
2022-10-05T17:24:02.688Z,2.60
2022-10-05T17:29:15.719Z,2.20
2022-10-05T17:34:37.683Z,2.90
2022-10-05T17:39:56.360Z,2.90
2022-10-05T17:45:02.817Z,2.90
2022-10-05T17:50:20.456Z,3.20
2022-10-05T17:55:43.969Z,2.70
2022-10-05T18:01:17.206Z,2.90
2022-10-05T18:06:44.747Z,3.30
2022-10-05T18:11:50.009Z,2.70
2022-10-05T18:17:13.983Z,3.30
2022-10-05T18:22:31.370Z,3.40
2022-10-05T18:28:23.664Z,3.50
2022-10-05T18:33:54.226Z,3.40
2022-10-05T18:39:05.259Z,3.00
2022-10-05T18:44:25.375Z,2.80
2022-10-05T18:49:49.471Z,2.90
2022-10-05T18:55:04.978Z,3.20
2022-10-05T19:00:15.017Z,2.70
2022-10-05T19:05:48.077Z,2.70
2022-10-05T19:10:56.497Z,2.80
2022-10-05T19:16:12.466Z,2.20
2022-10-05T19:21:26.954Z,2.70
2022-10-05T19:26:44.593Z,2.70
2022-10-05T19:31:51.567Z,3.00
2022-10-05T19:37:08.137Z,3.10
2022-10-05T19:42:44.832Z,3.20
2022-10-05T19:48:01.430Z,2.90
2022-10-05T19:53:17.369Z,2.70
2022-10-05T19:58:44.971Z,2.60
2022-10-05T20:03:53.660Z,3.60
2022-10-05T20:09:25.030Z,2.80
2022-10-05T20:14:59.211Z,3.10
2022-10-05T20:20:32.807Z,3.00
2022-10-05T20:25:41.746Z,3.20
2022-10-05T20:30:41.681Z,3.50
2022-10-05T20:35:42.266Z,3.20
2022-10-05T20:40:46.746Z,3.30
2022-10-05T20:46:02.793Z,3.90
2022-10-05T20:51:02.372Z,4.20
2022-10-05T20:56:27.883Z,3.40
2022-10-05T21:01:29.107Z,3.30
2022-10-05T21:06:29.728Z,4.10
2022-10-05T21:11:29.871Z,3.90
2022-10-05T21:16:30.757Z,3.90
2022-10-05T21:21:30.257Z,3.60
2022-10-05T21:26:30.580Z,4.20
2022-10-05T21:31:31.282Z,3.70
2022-10-05T21:36:30.732Z,3.50
2022-10-05T21:41:30.409Z,3.50
2022-10-05T21:46:30.452Z,3.20
2022-10-05T21:51:32.373Z,3.50
2022-10-05T21:56:39.766Z,3.60
2022-10-05T22:01:39.184Z,3.90
2022-10-05T22:06:41.524Z,3.80
2022-10-05T22:11:41.339Z,4.10
2022-10-05T22:16:43.592Z,3.80
2022-10-05T22:21:42.582Z,4.40
2022-10-05T22:26:43.776Z,3.60
2022-10-05T22:31:45.381Z,3.60
2022-10-05T22:36:44.694Z,4.50
2022-10-05T22:41:44.344Z,3.80
2022-10-05T22:46:44.921Z,3.70
2022-10-05T22:51:43.814Z,4.80
2022-10-05T22:56:42.755Z,4.10
2022-10-05T23:01:42.274Z,3.90
2022-10-05T23:06:41.482Z,3.40
2022-10-05T23:11:40.965Z,3.90
2022-10-05T23:16:39.923Z,3.40
2022-10-05T23:21:38.654Z,3.80
2022-10-05T23:26:38.055Z,3.40
2022-10-05T23:31:37.597Z,3.20
2022-10-05T23:36:36.715Z,2.70
2022-10-05T23:41:35.850Z,2.70
2022-10-05T23:46:39.299Z,2.90
2022-10-05T23:51:38.773Z,3.00
2022-10-05T23:56:38.297Z,2.80
